Terminal Aerodrome Forecast
Issued by NWS Sioux Falls, SD

Home | Current Version | Previous Version | Graphics & Text | Print | Product List | Glossary On
Versions: 1 2 3 4 5 6 7 8 9 10 11 12 13 14 15 16
903
FTUS43 KFSD 220520
TAFHON
TAF
KHON 220520Z 2206/2306 36012G19KT P6SM -SN OVC035
     FM220800 35015G23KT P6SM OVC015
     FM221200 35016G24KT 6SM BLSN OVC008
     FM222100 34016G24KT P6SM SCT015 SCT250
     FM230300 34011KT P6SM FEW150=

USA.gov is the U.S. government's official web portal to all federal, state and local government web resources and services.